createdAt,value
2022-11-30T00:00:55.395Z,41.63
2022-11-30T00:01:57.697Z,35.30
2022-11-30T00:03:00.227Z,42.97
2022-11-30T00:04:02.596Z,37.60
2022-11-30T00:05:05.203Z,40.83
2022-11-30T00:06:09.443Z,43.70
2022-11-30T00:07:11.701Z,37.85
2022-11-30T00:08:14.234Z,52.95
2022-11-30T00:09:16.421Z,48.72
2022-11-30T00:10:18.616Z,41.92
2022-11-30T00:11:22.421Z,40.80
2022-11-30T00:12:24.634Z,35.17
2022-11-30T00:13:26.930Z,30.42
2022-11-30T00:14:29.144Z,28.98
2022-11-30T00:15:32.962Z,28.95
2022-11-30T00:16:35.624Z,33.78
2022-11-30T00:17:37.923Z,31.73
2022-11-30T00:18:40.682Z,35.28
2022-11-30T00:19:43.446Z,29.77
2022-11-30T00:20:45.807Z,33.47
2022-11-30T00:21:48.141Z,35.13
2022-11-30T00:22:50.388Z,29.80
2022-11-30T00:23:52.591Z,31.75
2022-11-30T00:24:54.873Z,30.42
2022-11-30T00:26:00.769Z,28.92
2022-11-30T00:27:03.260Z,27.17
2022-11-30T00:28:05.487Z,30.90
2022-11-30T00:29:08.138Z,35.25
2022-11-30T00:30:10.840Z,40.88
2022-11-30T00:31:15.517Z,46.20
2022-11-30T00:32:17.974Z,44.35
2022-11-30T00:33:20.196Z,40.78
2022-11-30T00:34:22.387Z,43.30
2022-11-30T00:35:24.796Z,43.88
2022-11-30T00:36:27.102Z,36.35
2022-11-30T00:37:29.268Z,47.53
2022-11-30T00:38:32.623Z,47.90
2022-11-30T00:39:35.755Z,37.15
2022-11-30T00:40:38.064Z,53.40
2022-11-30T00:41:40.265Z,38.45
2022-11-30T00:42:42.447Z,49.00
2022-11-30T00:43:45.378Z,39.60
2022-11-30T00:44:47.807Z,40.83
2022-11-30T00:45:50.281Z,46.35
2022-11-30T00:46:52.503Z,42.35
2022-11-30T00:47:54.797Z,46.38
2022-11-30T00:48:57.030Z,39.78
2022-11-30T00:49:59.554Z,44.25
2022-11-30T00:51:01.793Z,36.53
2022-11-30T00:52:04.128Z,35.92
2022-11-30T00:53:06.580Z,49.45
2022-11-30T00:54:08.766Z,46.30
2022-11-30T00:55:10.972Z,36.70
2022-11-30T00:56:13.672Z,37.55
2022-11-30T00:57:15.918Z,34.60
2022-11-30T00:58:18.398Z,32.20
2022-11-30T00:59:20.638Z,38.63
2022-11-30T01:00:22.881Z,38.20
2022-11-30T01:01:25.151Z,33.60
2022-11-30T01:02:27.493Z,33.65
2022-11-30T01:03:29.710Z,33.80
2022-11-30T01:04:31.962Z,35.90
2022-11-30T01:05:34.964Z,30.98
2022-11-30T01:06:37.635Z,33.08
2022-11-30T01:07:39.890Z,35.55
2022-11-30T01:08:42.133Z,31.15
2022-11-30T01:09:44.374Z,42.95
2022-11-30T01:10:49.451Z,44.42
2022-11-30T01:11:51.678Z,45.22
2022-11-30T01:12:54.494Z,39.92
2022-11-30T01:13:58.265Z,46.22
2022-11-30T01:15:00.447Z,46.35
2022-11-30T01:16:09.667Z,37.08
2022-11-30T01:17:11.885Z,39.53
2022-11-30T01:18:14.375Z,48.40
2022-11-30T01:19:16.932Z,43.70
2022-11-30T01:20:19.084Z,45.70
2022-11-30T01:21:24.760Z,47.67
2022-11-30T01:22:26.982Z,42.17
2022-11-30T01:23:29.210Z,39.30
2022-11-30T01:24:31.427Z,52.95
2022-11-30T01:25:33.965Z,43.25
2022-11-30T01:26:36.224Z,48.28
2022-11-30T01:27:38.452Z,42.97
2022-11-30T01:28:41.100Z,38.78
2022-11-30T01:29:43.311Z,37.72
2022-11-30T01:30:45.541Z,37.72
2022-11-30T01:31:47.708Z,38.13
2022-11-30T01:32:49.949Z,38.90
2022-11-30T01:33:55.078Z,40.85
2022-11-30T01:34:57.310Z,43.38
2022-11-30T01:36:06.442Z,48.72
2022-11-30T01:37:08.609Z,45.08
2022-11-30T01:38:10.846Z,52.60
2022-11-30T01:39:13.139Z,52.67
2022-11-30T01:40:15.418Z,48.25
2022-11-30T01:41:21.920Z,52.55
2022-11-30T01:42:24.871Z,47.28
2022-11-30T01:43:41.520Z,40.88
2022-11-30T01:44:52.373Z,52.72
2022-11-30T01:45:54.564Z,41.75
2022-11-30T01:46:59.623Z,56.78
2022-11-30T01:48:01.919Z,52.17
2022-11-30T01:49:09.918Z,54.78
2022-11-30T01:50:35.876Z,51.47
2022-11-30T01:51:48.638Z,46.15
2022-11-30T01:52:54.406Z,52.47
2022-11-30T01:53:57.232Z,49.33
2022-11-30T01:55:08.126Z,53.03
2022-11-30T01:56:10.691Z,57.42
2022-11-30T01:57:21.250Z,41.25
2022-11-30T01:58:28.579Z,43.25
2022-11-30T01:59:31.283Z,50.03
2022-11-30T02:01:48.024Z,55.85
2022-11-30T02:03:00.222Z,45.10
2022-11-30T02:04:11.345Z,48.20
2022-11-30T02:05:15.975Z,50.45
2022-11-30T02:06:18.272Z,44.10
2022-11-30T02:07:20.889Z,55.75
2022-11-30T02:08:23.538Z,52.90
2022-11-30T02:09:27.551Z,54.42
2022-11-30T02:10:34.241Z,63.72
2022-11-30T02:11:36.612Z,54.88
2022-11-30T02:13:05.537Z,62.25
2022-11-30T02:14:36.156Z,49.63
2022-11-30T02:16:00.160Z,55.25
2022-11-30T02:17:27.986Z,48.20
2022-11-30T02:18:39.089Z,62.15
2022-11-30T02:20:04.699Z,57.42
2022-11-30T02:21:13.567Z,52.92
2022-11-30T02:22:49.630Z,54.58
2022-11-30T02:23:57.585Z,56.72
2022-11-30T02:25:13.324Z,59.88
2022-11-30T02:26:50.186Z,43.65
2022-11-30T02:27:58.376Z,44.15
2022-11-30T02:29:29.277Z,50.40
2022-11-30T02:30:35.879Z,47.60
2022-11-30T02:32:01.184Z,50.08
2022-11-30T02:33:09.402Z,59.42
2022-11-30T02:34:15.980Z,63.10
2022-11-30T02:35:21.799Z,45.65
2022-11-30T02:36:24.825Z,53.42
2022-11-30T02:37:28.503Z,59.28
2022-11-30T02:38:31.150Z,60.30
2022-11-30T02:39:33.353Z,54.83
2022-11-30T02:40:35.581Z,60.92
2022-11-30T02:41:41.126Z,54.97
2022-11-30T02:42:43.357Z,49.20
2022-11-30T02:43:45.577Z,49.75
2022-11-30T02:44:50.775Z,48.13
2022-11-30T02:46:14.948Z,51.10
2022-11-30T02:47:30.945Z,48.63
2022-11-30T02:48:44.487Z,44.58
2022-11-30T02:49:56.423Z,54.47
2022-11-30T02:51:02.241Z,51.95
2022-11-30T02:52:06.461Z,49.20
2022-11-30T02:53:10.169Z,55.83
2022-11-30T02:54:12.562Z,59.30
2022-11-30T02:55:18.156Z,58.95
2022-11-30T02:56:22.052Z,58.85
2022-11-30T02:57:24.434Z,60.20
2022-11-30T02:58:26.872Z,49.95
2022-11-30T02:59:29.465Z,45.17
2022-11-30T03:00:32.258Z,52.80
2022-11-30T03:01:34.535Z,51.10
2022-11-30T03:02:37.521Z,42.40
2022-11-30T03:03:39.820Z,48.67
2022-11-30T03:04:42.056Z,44.65
2022-11-30T03:05:44.376Z,50.97
2022-11-30T03:06:46.571Z,52.97
2022-11-30T03:07:48.809Z,54.10
2022-11-30T03:08:52.337Z,42.20
2022-11-30T03:09:54.551Z,50.47
2022-11-30T03:10:56.773Z,47.10
2022-11-30T03:11:58.967Z,45.22
2022-11-30T03:13:01.156Z,40.80
2022-11-30T03:14:03.878Z,52.67
2022-11-30T03:15:06.400Z,53.15
2022-11-30T03:16:11.336Z,51.72
2022-11-30T03:17:13.712Z,53.47
2022-11-30T03:18:15.878Z,44.97
2022-11-30T03:19:18.207Z,43.55
2022-11-30T03:20:20.396Z,46.05
2022-11-30T03:21:22.589Z,42.30
2022-11-30T03:22:25.124Z,42.15
2022-11-30T03:23:27.381Z,45.63
2022-11-30T03:24:29.853Z,39.17
2022-11-30T03:25:32.130Z,47.17
2022-11-30T03:26:34.431Z,38.95
2022-11-30T03:27:36.637Z,47.30
2022-11-30T03:28:38.848Z,39.88
2022-11-30T03:29:41.127Z,40.72
2022-11-30T03:30:49.440Z,42.75
2022-11-30T03:31:51.705Z,39.22
2022-11-30T03:32:53.932Z,44.70
2022-11-30T03:33:56.241Z,36.63
2022-11-30T03:34:58.470Z,45.92
2022-11-30T03:36:06.240Z,42.00
2022-11-30T03:37:08.608Z,44.50
2022-11-30T03:38:10.860Z,45.47
2022-11-30T03:39:13.104Z,39.58
2022-11-30T03:40:15.586Z,37.80
2022-11-30T03:41:17.938Z,49.58
2022-11-30T03:42:20.218Z,44.20
2022-11-30T03:43:22.450Z,38.95
2022-11-30T03:44:24.775Z,38.63
2022-11-30T03:45:27.004Z,42.65
2022-11-30T03:46:29.198Z,41.83
2022-11-30T03:47:31.674Z,36.45
2022-11-30T03:48:35.950Z,36.88
2022-11-30T03:49:38.149Z,35.55
2022-11-30T03:50:41.559Z,42.63
2022-11-30T03:51:43.815Z,39.97
2022-11-30T03:52:46.038Z,39.60
2022-11-30T03:53:48.302Z,42.58
2022-11-30T03:54:50.472Z,44.90
2022-11-30T03:55:58.093Z,42.72
2022-11-30T03:57:00.305Z,43.35
2022-11-30T03:58:02.505Z,36.05
2022-11-30T03:59:04.933Z,42.92
2022-11-30T04:00:07.829Z,45.67
2022-11-30T04:01:17.023Z,44.00
2022-11-30T04:02:19.354Z,39.15
2022-11-30T04:03:21.841Z,40.15
2022-11-30T04:04:24.103Z,42.67
2022-11-30T04:05:26.386Z,38.25
2022-11-30T04:06:28.600Z,46.20
2022-11-30T04:07:30.830Z,38.95
2022-11-30T04:08:33.894Z,38.88
2022-11-30T04:09:36.166Z,45.10
2022-11-30T04:10:38.352Z,47.95
2022-11-30T04:11:40.741Z,47.35
2022-11-30T04:12:42.972Z,44.90
2022-11-30T04:13:45.247Z,42.35
2022-11-30T04:14:47.662Z,37.40
2022-11-30T04:15:51.741Z,38.15
2022-11-30T04:16:54.025Z,41.40
2022-11-30T04:17:56.257Z,45.53
2022-11-30T04:18:58.544Z,52.38
2022-11-30T04:20:00.777Z,43.95
2022-11-30T04:21:03.198Z,45.30
2022-11-30T04:22:05.378Z,48.03
2022-11-30T04:23:08.746Z,45.78
2022-11-30T04:24:10.970Z,45.03
2022-11-30T04:25:13.189Z,37.85
2022-11-30T04:26:16.587Z,49.28
2022-11-30T04:27:18.932Z,40.55
2022-11-30T04:28:21.250Z,46.40
2022-11-30T04:29:23.667Z,40.60
2022-11-30T04:30:25.838Z,49.15
2022-11-30T04:31:28.092Z,45.22
2022-11-30T04:32:30.314Z,49.13
2022-11-30T04:33:32.684Z,44.67
2022-11-30T04:34:34.898Z,43.40
2022-11-30T04:35:49.976Z,38.45
2022-11-30T04:36:56.007Z,42.10
2022-11-30T04:38:01.165Z,40.25
2022-11-30T04:39:03.460Z,34.72
2022-11-30T04:40:06.720Z,32.33
2022-11-30T04:41:09.118Z,37.85
2022-11-30T04:42:11.254Z,39.83
2022-11-30T04:43:13.643Z,37.00
2022-11-30T04:44:15.794Z,33.38
2022-11-30T04:45:18.091Z,33.13
2022-11-30T04:46:20.432Z,33.33
2022-11-30T04:47:23.206Z,32.10
2022-11-30T04:48:25.489Z,32.80
2022-11-30T04:49:27.725Z,30.73
2022-11-30T04:50:30.099Z,33.58
2022-11-30T04:51:32.297Z,33.60
2022-11-30T04:52:34.735Z,31.50
2022-11-30T04:53:38.377Z,36.80
2022-11-30T04:54:40.549Z,36.90
2022-11-30T04:55:42.737Z,35.80
2022-11-30T04:56:45.044Z,34.15
2022-11-30T04:57:47.640Z,35.88
2022-11-30T04:58:49.832Z,34.92
2022-11-30T04:59:52.050Z,34.67
2022-11-30T05:00:55.460Z,36.97
2022-11-30T05:01:57.892Z,38.08
2022-11-30T05:03:00.141Z,36.03
2022-11-30T05:04:02.540Z,34.83
2022-11-30T05:05:05.183Z,35.63
2022-11-30T05:06:07.555Z,40.78
2022-11-30T05:07:09.765Z,34.58
2022-11-30T05:08:11.950Z,42.90
2022-11-30T05:09:14.196Z,37.38
2022-11-30T05:10:16.631Z,36.70
2022-11-30T05:11:18.945Z,36.67
2022-11-30T05:12:21.338Z,39.60
2022-11-30T05:13:25.015Z,34.78
2022-11-30T05:14:27.362Z,44.47
2022-11-30T05:15:29.555Z,37.85
2022-11-30T05:16:31.794Z,38.70
2022-11-30T05:17:34.500Z,35.85
2022-11-30T05:18:36.942Z,35.00
2022-11-30T05:19:39.169Z,37.88
2022-11-30T05:20:41.728Z,34.83
2022-11-30T05:21:45.939Z,31.77
2022-11-30T05:22:48.849Z,34.20
2022-11-30T05:23:52.233Z,31.42
2022-11-30T05:24:54.439Z,41.15
2022-11-30T05:25:56.853Z,36.15
2022-11-30T05:26:59.520Z,32.78
2022-11-30T05:28:01.679Z,33.95
2022-11-30T05:29:05.370Z,38.50
2022-11-30T05:30:08.071Z,35.85
2022-11-30T05:31:10.356Z,41.10
2022-11-30T05:32:12.747Z,35.92
2022-11-30T05:33:14.975Z,41.22
2022-11-30T05:34:17.165Z,44.13
2022-11-30T05:35:19.383Z,39.70
2022-11-30T05:36:21.625Z,45.42
2022-11-30T05:37:23.832Z,38.92
2022-11-30T05:38:26.159Z,39.85
2022-11-30T05:39:28.398Z,41.80
2022-11-30T05:40:32.471Z,34.03
2022-11-30T05:41:34.679Z,35.88
2022-11-30T05:42:36.902Z,42.65
2022-11-30T05:43:39.320Z,35.30
2022-11-30T05:44:41.468Z,34.90
2022-11-30T05:45:43.727Z,34.42
2022-11-30T05:46:45.932Z,31.67
2022-11-30T05:47:48.263Z,39.83
2022-11-30T05:48:50.549Z,54.42
2022-11-30T05:49:52.768Z,52.42
2022-11-30T05:50:55.319Z,41.70
2022-11-30T05:51:57.560Z,47.25
2022-11-30T05:53:00.959Z,36.13
2022-11-30T05:54:03.194Z,39.25
2022-11-30T05:55:05.843Z,38.95
2022-11-30T05:56:11.124Z,40.67
2022-11-30T05:57:13.318Z,34.38
2022-11-30T05:58:15.532Z,36.63
2022-11-30T05:59:17.790Z,30.23
2022-11-30T06:00:21.254Z,35.10
2022-11-30T06:01:28.654Z,35.60
2022-11-30T06:02:31.003Z,32.28
2022-11-30T06:03:35.019Z,34.65
2022-11-30T06:04:37.203Z,28.10
2022-11-30T06:05:39.522Z,31.80
2022-11-30T06:06:41.734Z,29.10
2022-11-30T06:07:44.027Z,29.13
2022-11-30T06:08:47.710Z,30.90
2022-11-30T06:09:49.913Z,30.25
2022-11-30T06:10:52.223Z,30.45
2022-11-30T06:11:54.479Z,31.23
2022-11-30T06:12:56.654Z,34.83
2022-11-30T06:13:58.855Z,30.30
2022-11-30T06:15:01.090Z,33.92
2022-11-30T06:16:04.530Z,31.98
2022-11-30T06:17:06.851Z,30.15
2022-11-30T06:18:12.313Z,31.13
2022-11-30T06:19:14.514Z,29.85
2022-11-30T06:20:16.760Z,28.88
2022-11-30T06:21:24.209Z,27.95
2022-11-30T06:22:26.997Z,31.17
2022-11-30T06:23:29.863Z,31.23
2022-11-30T06:24:32.087Z,34.00
2022-11-30T06:25:34.699Z,27.33
2022-11-30T06:26:36.930Z,31.00
2022-11-30T06:27:39.183Z,29.58
2022-11-30T06:28:46.618Z,29.48
2022-11-30T06:29:50.326Z,28.17
2022-11-30T06:30:52.485Z,33.70
2022-11-30T06:31:54.703Z,28.90
2022-11-30T06:32:56.930Z,33.08
2022-11-30T06:33:59.447Z,28.90
2022-11-30T06:35:01.715Z,28.83
2022-11-30T06:36:04.183Z,33.72
2022-11-30T06:37:06.407Z,32.05
2022-11-30T06:38:08.549Z,29.48
2022-11-30T06:39:12.484Z,27.02
2022-11-30T06:40:14.924Z,28.08
2022-11-30T06:41:17.199Z,26.88
2022-11-30T06:42:19.951Z,32.15
2022-11-30T06:43:22.266Z,28.15
2022-11-30T06:44:24.452Z,27.95
2022-11-30T06:45:26.715Z,28.23
2022-11-30T06:46:28.929Z,28.17
2022-11-30T06:47:31.251Z,26.38
2022-11-30T06:48:34.321Z,28.23
2022-11-30T06:49:36.587Z,29.67
2022-11-30T06:50:39.311Z,32.60
2022-11-30T06:51:42.469Z,28.38
2022-11-30T06:52:44.933Z,26.35
2022-11-30T06:53:47.241Z,29.83
2022-11-30T06:54:49.874Z,31.48
2022-11-30T06:55:52.539Z,29.17
2022-11-30T06:56:56.562Z,28.13
2022-11-30T06:58:06.357Z,26.73
2022-11-30T06:59:08.715Z,31.65
2022-11-30T07:00:12.544Z,28.70
2022-11-30T07:01:15.347Z,32.22
2022-11-30T07:02:18.751Z,30.35
2022-11-30T07:03:21.283Z,24.60
2022-11-30T07:04:23.568Z,28.70
2022-11-30T07:05:25.854Z,30.60
2022-11-30T07:06:28.027Z,32.70
2022-11-30T07:07:30.484Z,42.95
2022-11-30T07:08:32.733Z,40.03
2022-11-30T07:09:35.411Z,31.63
2022-11-30T07:10:42.279Z,28.00
2022-11-30T07:11:45.273Z,26.65
2022-11-30T07:12:47.428Z,28.85
2022-11-30T07:13:49.611Z,27.73
2022-11-30T07:14:53.532Z,30.10
2022-11-30T07:15:55.962Z,26.80
2022-11-30T07:16:58.184Z,35.47
2022-11-30T07:18:01.068Z,32.50
2022-11-30T07:19:03.325Z,28.58
2022-11-30T07:20:06.306Z,26.88
2022-11-30T07:21:10.924Z,33.63
2022-11-30T07:22:13.794Z,27.05
2022-11-30T07:23:35.006Z,29.63
2022-11-30T07:24:55.575Z,26.55
2022-11-30T07:26:07.434Z,24.85
2022-11-30T07:27:09.993Z,29.05
2022-11-30T07:28:12.233Z,26.60
2022-11-30T07:29:14.456Z,29.00
2022-11-30T07:30:16.881Z,25.70
2022-11-30T07:31:27.413Z,31.80
2022-11-30T07:32:54.862Z,32.47
2022-11-30T07:33:58.910Z,29.42
2022-11-30T07:35:01.118Z,26.80
2022-11-30T07:36:03.387Z,27.35
2022-11-30T07:38:31.886Z,31.23
2022-11-30T07:39:34.152Z,31.77
2022-11-30T07:42:03.059Z,28.40
2022-11-30T07:43:05.590Z,25.80
2022-11-30T07:44:08.917Z,27.08
2022-11-30T07:45:11.274Z,28.42
2022-11-30T07:46:15.319Z,29.23
2022-11-30T07:47:17.667Z,28.60
2022-11-30T07:48:20.672Z,28.88
2022-11-30T07:49:23.049Z,27.27
2022-11-30T07:50:26.465Z,27.55
